Time;durP1;ratioP1;P1;durP2;ratioP2;P2;SDS_P1;SDS_P2;PMS_P1;PMS_P2;Temp;Humidity;BMP_temperature;BMP_pressure;BME280_temperature;BME280_humidity;BME280_pressure;Samples;Min_cycle;Max_cycle;Signal;HPM_P1;HPM_P2
2021/01/20 00:00:52;;;;;;;;;;;;;;;21.95;17.38;98334.19;5121656;28;1898;-79
2021/01/20 00:03:18;;;;;;;;;;;;;;;21.90;17.15;98335.50;5121090;28;705;-78
2021/01/20 00:05:43;;;;;;;;;;;;;;;21.75;17.66;98349.19;5103726;28;1570;-79
2021/01/20 00:08:09;;;;;;;;;;;;;;;22.03;17.14;98341.31;5102906;28;1579;-78
2021/01/20 00:10:34;;;;;;;;;;;;;;;21.93;17.07;98345.97;5104793;28;866;-78
2021/01/20 00:13:00;;;;;;;;;;;;;;;21.95;17.31;98345.53;5125265;28;1030;-79
2021/01/20 00:15:25;;;;;;;;;;;;;;;22.04;17.25;98354.22;5125058;28;624;-78
2021/01/20 00:17:51;;;;;;;;;;;;;;;21.83;17.25;98353.47;5124349;28;1510;-78
2021/01/20 00:20:16;;;;;;;;;;;;;;;21.92;17.53;98352.09;5124581;28;1961;-79
2021/01/20 00:22:42;;;;;;;;;;;;;;;21.89;17.54;98356.56;5124323;28;920;-78
2021/01/20 00:25:08;;;;;;;;;;;;;;;22.00;17.50;98347.84;5124378;28;820;-79
2021/01/20 00:27:34;;;;;;;;;;;;;;;22.04;17.06;98345.72;5124484;28;1589;-78
2021/01/20 00:29:59;;;;;;;;;;;;;;;21.87;17.37;98350.56;5124195;28;666;-79
2021/01/20 00:32:25;;;;;;;;;;;;;;;21.91;17.49;98347.63;5124815;28;607;-78
2021/01/20 00:34:50;;;;;;;;;;;;;;;21.90;17.36;98343.22;5124423;28;745;-79
2021/01/20 00:37:15;;;;;;;;;;;;;;;21.88;17.40;98345.69;5124034;28;1494;-78
2021/01/20 00:39:44;;;;;;;;;;;;;;;21.69;17.38;98345.28;5123755;28;1893;-79
2021/01/20 00:42:09;;;;;;;;;;;;;;;21.78;17.59;98345.47;5124544;28;960;-78
2021/01/20 00:44:35;;;;;;;;;;;;;;;21.69;17.41;98336.78;5106455;28;657;-79
2021/01/20 00:47:00;;;;;;;;;;;;;;;21.74;17.49;98341.91;5124741;28;662;-78
2021/01/20 00:49:26;;;;;;;;;;;;;;;21.83;17.34;98333.63;5123818;28;1530;-79
2021/01/20 00:51:51;;;;;;;;;;;;;;;21.85;17.50;98328.31;5106373;28;936;-78
2021/01/20 00:54:17;;;;;;;;;;;;;;;22.04;17.17;98338.00;5106005;28;1234;-78
2021/01/20 00:56:43;;;;;;;;;;;;;;;22.01;17.19;98338.09;5106714;28;872;-78
2021/01/20 00:59:08;;;;;;;;;;;;;;;21.91;17.21;98339.13;5105643;28;1550;-78
2021/01/20 01:01:34;;;;;;;;;;;;;;;21.73;17.67;98337.50;5106823;28;1906;-79
2021/01/20 01:04:00;;;;;;;;;;;;;;;21.91;17.48;98333.47;5105896;28;1025;-78
2021/01/20 01:06:25;;;;;;;;;;;;;;;21.82;17.60;98340.53;5089649;28;1254;-78
2021/01/20 01:08:56;;;;;;;;;;;;;;;21.89;17.47;98341.63;5088964;28;1483;-78
2021/01/20 01:11:21;;;;;;;;;;;;;;;21.95;17.42;98329.31;5106277;28;1586;-78
2021/01/20 01:13:51;;;;;;;;;;;;;;;22.09;17.10;98322.53;5105837;28;1147;-78
2021/01/20 01:16:42;;;;;;;;;;;;;;;22.01;17.34;98327.56;5093181;28;1258;-78
2021/01/20 01:19:09;;;;;;;;;;;;;;;21.82;17.50;98329.22;5105794;28;1551;-78
2021/01/20 01:21:35;;;;;;;;;;;;;;;21.96;17.31;98324.44;5104602;28;1906;-78
2021/01/20 01:24:01;;;;;;;;;;;;;;;21.91;17.63;98322.13;5088855;28;1374;-79
2021/01/20 01:26:27;;;;;;;;;;;;;;;21.88;17.54;98318.16;5105760;28;1370;-79
2021/01/20 01:28:53;;;;;;;;;;;;;;;21.96;17.51;98318.78;5088501;28;1272;-79
2021/01/20 01:31:30;;;;;;;;;;;;;;;21.88;17.55;98308.88;5105821;28;1574;-79
2021/01/20 01:33:56;;;;;;;;;;;;;;;21.88;17.74;98311.69;5088493;28;1154;-78
2021/01/20 01:36:25;;;;;;;;;;;;;;;21.98;17.70;98305.00;5089537;28;1206;-79
2021/01/20 01:38:54;;;;;;;;;;;;;;;21.83;17.67;98310.97;5105260;28;1263;-78
2021/01/20 01:41:26;;;;;;;;;;;;;;;21.96;17.41;98310.28;5105583;28;1975;-78
2021/01/20 01:43:59;;;;;;;;;;;;;;;21.98;17.68;98310.66;5089723;28;1227;-78
2021/01/20 01:46:46;;;;;;;;;;;;;;;21.75;17.69;98303.84;5108822;28;701;-79
2021/01/20 01:49:34;;;;;;;;;;;;;;;22.09;17.54;98316.88;5111756;28;1064;-79
2021/01/20 01:52:02;;;;;;;;;;;;;;;21.91;17.73;98317.25;5105103;28;1516;-78
2021/01/20 01:54:36;;;;;;;;;;;;;;;21.77;17.65;98307.06;5137679;27;996;-79
2021/01/20 01:57:10;;;;;;;;;;;;;;;21.75;17.72;98309.53;5105593;28;1162;-79
2021/01/20 01:59:42;;;;;;;;;;;;;;;21.78;17.82;98313.53;5104899;28;1897;-79
2021/01/20 02:02:18;;;;;;;;;;;;;;;21.98;17.55;98316.31;5105223;28;1539;-79
2021/01/20 02:04:44;;;;;;;;;;;;;;;21.94;17.60;98315.59;5122459;28;661;-79
2021/01/20 02:07:13;;;;;;;;;;;;;;;21.71;17.99;98314.50;5138847;27;907;-79
2021/01/20 02:09:39;;;;;;;;;;;;;;;22.03;17.71;98318.63;5122416;28;838;-78
2021/01/20 02:12:24;;;;;;;;;;;;;;;22.08;17.70;98315.28;5121924;28;1515;-78
2021/01/20 02:15:01;;;;;;;;;;;;;;;21.92;17.61;98318.09;5118413;28;1495;-78
2021/01/20 02:17:33;;;;;;;;;;;;;;;21.74;17.77;98312.81;5118325;28;679;-79
2021/01/20 02:20:15;;;;;;;;;;;;;;;21.82;17.83;98309.38;5100834;28;1893;-79
2021/01/20 02:22:48;;;;;;;;;;;;;;;21.74;17.95;98309.97;5086148;28;1538;-79
2021/01/20 02:26:02;;;;;;;;;;;;;;;21.75;17.69;98309.53;5037683;28;1045;-79
2021/01/20 02:29:10;;;;;;;;;;;;;;;21.75;18.02;98309.53;5120558;28;1104;-79
2021/01/20 02:31:42;;;;;;;;;;;;;;;21.83;17.94;98308.13;5043529;28;1313;-78
2021/01/20 02:34:10;;;;;;;;;;;;;;;21.87;17.77;98310.91;5097932;28;1626;-79
2021/01/20 02:36:38;;;;;;;;;;;;;;;21.79;17.94;98301.75;5087977;28;1264;-78
2021/01/20 02:39:26;;;;;;;;;;;;;;;21.94;17.82;98301.44;5088133;28;1064;-79
2021/01/20 02:42:12;;;;;;;;;;;;;;;21.91;17.86;98310.81;5107682;28;1086;-78
2021/01/20 02:44:42;;;;;;;;;;;;;;;22.06;17.36;98306.41;5103922;28;1527;-79
2021/01/20 02:47:34;;;;;;;;;;;;;;;21.81;17.62;98301.31;5103419;28;1036;-79
2021/01/20 02:50:03;;;;;;;;;;;;;;;21.71;18.10;98300.34;5104347;28;1263;-79
2021/01/20 02:52:41;;;;;;;;;;;;;;;21.80;18.04;98299.72;5087695;28;1036;-79
2021/01/20 02:55:25;;;;;;;;;;;;;;;21.95;17.66;98305.84;5121246;28;1606;-78
2021/01/20 02:58:09;;;;;;;;;;;;;;;21.74;18.11;98302.28;5135589;27;618;-79
2021/01/20 03:00:49;;;;;;;;;;;;;;;21.88;17.59;98315.31;5108929;28;1961;-79
2021/01/20 03:03:14;;;;;;;;;;;;;;;21.68;18.11;98308.91;5117504;28;660;-78
2021/01/20 03:05:40;;;;;;;;;;;;;;;21.70;18.18;98304.38;5124546;28;1510;-79
2021/01/20 03:08:05;;;;;;;;;;;;;;;21.73;18.05;98306.34;5137731;27;935;-79
2021/01/20 03:10:31;;;;;;;;;;;;;;;21.84;18.00;98312.56;5138459;28;981;-79
2021/01/20 03:12:56;;;;;;;;;;;;;;;21.89;17.82;98316.13;5138008;27;964;-79
2021/01/20 03:15:22;;;;;;;;;;;;;;;21.82;17.83;98320.72;5137516;28;1522;-78
2021/01/20 03:17:48;;;;;;;;;;;;;;;21.96;17.85;98322.41;5121999;28;1448;-79
2021/01/20 03:20:13;;;;;;;;;;;;;;;21.85;18.04;98319.81;5103953;28;1953;-79
2021/01/20 03:22:39;;;;;;;;;;;;;;;21.87;18.02;98318.59;5103940;28;952;-79
2021/01/20 03:25:05;;;;;;;;;;;;;;;22.01;17.86;98321.09;5103541;28;894;-78
2021/01/20 03:27:30;;;;;;;;;;;;;;;22.11;17.61;98325.75;5103858;28;1558;-79
2021/01/20 03:29:55;;;;;;;;;;;;;;;22.00;17.72;98325.97;5137900;27;683;-78
2021/01/20 03:32:21;;;;;;;;;;;;;;;21.95;17.90;98320.81;5138022;28;702;-78
2021/01/20 03:34:46;;;;;;;;;;;;;;;21.95;18.11;98317.19;5137282;28;950;-78
2021/01/20 03:37:12;;;;;;;;;;;;;;;21.96;17.90;98321.63;5131994;27;1514;-78
2021/01/20 03:39:37;;;;;;;;;;;;;;;22.01;17.78;98321.88;5103634;28;1590;-79
2021/01/20 03:42:02;;;;;;;;;;;;;;;22.01;17.73;98312.59;5121201;28;1972;-78
2021/01/20 03:44:28;;;;;;;;;;;;;;;22.00;18.06;98314.63;5137623;27;590;-78
2021/01/20 03:46:53;;;;;;;;;;;;;;;22.02;17.85;98311.34;5125338;28;570;-79
2021/01/20 03:49:18;;;;;;;;;;;;;;;21.81;18.17;98313.47;5124938;28;1491;-78
2021/01/20 03:51:45;;;;;;;;;;;;;;;21.47;18.39;98313.00;5141560;27;976;-78
2021/01/20 03:54:13;;;;;;;;;;;;;;;21.31;18.69;98320.19;5124639;28;1063;-78
2021/01/20 03:56:38;;;;;;;;;;;;;;;21.45;18.72;98316.28;5125331;28;931;-78
2021/01/20 03:59:03;;;;;;;;;;;;;;;21.61;18.32;98315.53;5139730;27;1588;-78
2021/01/20 04:01:29;;;;;;;;;;;;;;;21.73;18.08;98317.66;5141944;27;1970;-79
2021/01/20 04:03:54;;;;;;;;;;;;;;;21.72;18.31;98310.41;5141179;27;677;-78
2021/01/20 04:06:22;;;;;;;;;;;;;;;21.89;18.06;98319.75;5106992;28;847;-78
2021/01/20 04:08:50;;;;;;;;;;;;;;;21.74;18.25;98318.47;5123826;28;1554;-78
2021/01/20 04:11:16;;;;;;;;;;;;;;;21.72;18.36;98316.09;5125206;28;1079;-79
2021/01/20 04:13:41;;;;;;;;;;;;;;;21.78;18.30;98320.00;5124385;28;665;-78
2021/01/20 04:16:07;;;;;;;;;;;;;;;21.72;18.30;98327.41;5125656;28;693;-79
2021/01/20 04:18:32;;;;;;;;;;;;;;;21.83;18.16;98332.84;5124285;28;594;-78
2021/01/20 04:20:57;;;;;;;;;;;;;;;22.07;17.67;98330.66;5124269;28;1997;-78
2021/01/20 04:23:23;;;;;;;;;;;;;;;22.17;17.70;98332.47;5124264;28;912;-78
2021/01/20 04:25:48;;;;;;;;;;;;;;;21.99;18.13;98330.03;5141099;27;1045;-79
2021/01/20 04:28:14;;;;;;;;;;;;;;;21.79;18.11;98338.56;5140634;27;685;-78
2021/01/20 04:30:39;;;;;;;;;;;;;;;21.74;18.13;98336.25;5124164;28;2013;-77
2021/01/20 04:33:05;;;;;;;;;;;;;;;21.86;18.21;98331.94;5124240;28;638;-79
2021/01/20 04:35:30;;;;;;;;;;;;;;;22.03;17.98;98335.63;5124196;28;991;-78
2021/01/20 04:37:56;;;;;;;;;;;;;;;22.06;17.83;98340.41;5123839;28;823;-78
2021/01/20 04:40:21;;;;;;;;;;;;;;;21.83;18.23;98344.97;5123740;28;1897;-78
2021/01/20 04:42:53;;;;;;;;;;;;;;;21.75;18.31;98337.84;5124211;28;658;-79
2021/01/20 04:45:18;;;;;;;;;;;;;;;21.81;18.30;98344.63;5124165;28;626;-78
2021/01/20 04:47:44;;;;;;;;;;;;;;;21.97;18.29;98338.19;5106334;28;894;-79
2021/01/20 04:50:09;;;;;;;;;;;;;;;21.81;18.27;98340.97;5139882;27;949;-78
2021/01/20 04:52:35;;;;;;;;;;;;;;;21.83;18.01;98344.97;5138367;27;1685;-78
2021/01/20 04:55:00;;;;;;;;;;;;;;;21.76;18.27;98350.81;5140141;27;1189;-79
2021/01/20 04:57:28;;;;;;;;;;;;;;;21.69;18.33;98350.94;5123487;28;633;-78
2021/01/20 04:59:53;;;;;;;;;;;;;;;21.90;18.33;98344.00;5139487;27;1898;-78
2021/01/20 05:02:18;;;;;;;;;;;;;;;21.88;18.07;98334.34;5138700;27;1588;-78
2021/01/20 05:04:44;;;;;;;;;;;;;;;21.85;18.19;98348.16;5140000;27;999;-78
2021/01/20 05:07:10;;;;;;;;;;;;;;;21.85;18.32;98348.16;5140325;27;883;-78
2021/01/20 05:09:35;;;;;;;;;;;;;;;21.81;18.36;98350.28;5123323;28;755;-78
2021/01/20 05:12:01;;;;;;;;;;;;;;;21.77;18.41;98358.06;5140300;27;672;-78
2021/01/20 05:14:26;;;;;;;;;;;;;;;21.82;18.23;98354.72;5139672;27;637;-78
2021/01/20 05:16:53;;;;;;;;;;;;;;;21.81;18.30;98347.44;5123687;28;649;-78
2021/01/20 05:19:38;;;;;;;;;;;;;;;21.76;18.48;98345.13;5138967;27;842;-79
2021/01/20 05:22:06;;;;;;;;;;;;;;;21.95;18.27;98349.16;5139053;27;1981;-78
2021/01/20 05:24:32;;;;;;;;;;;;;;;21.91;18.18;98361.78;5123015;28;573;-78
2021/01/20 05:26:58;;;;;;;;;;;;;;;22.03;18.13;98359.09;5139586;27;1176;-78
2021/01/20 05:29:24;;;;;;;;;;;;;;;21.96;18.19;98361.28;5138795;27;1054;-78
2021/01/20 05:31:49;;;;;;;;;;;;;;;21.94;18.17;98352.44;5139178;27;1235;-78
2021/01/20 05:34:24;;;;;;;;;;;;;;;22.08;18.10;98366.28;5104591;28;1194;-79
2021/01/20 05:37:03;;;;;;;;;;;;;;;22.09;18.14;98362.22;5103128;28;1209;-78
2021/01/20 05:39:29;;;;;;;;;;;;;;;21.89;18.32;98364.28;5102391;28;717;-78
2021/01/20 05:42:20;;;;;;;;;;;;;;;22.16;18.02;98367.72;5118930;28;1982;-78
2021/01/20 05:45:00;;;;;;;;;;;;;;;22.05;18.03;98369.97;5083325;28;1034;-78
2021/01/20 05:47:26;;;;;;;;;;;;;;;22.13;18.12;98373.50;5102007;28;639;-78
2021/01/20 05:49:51;;;;;;;;;;;;;;;22.04;18.36;98388.22;5102040;28;852;-78
2021/01/20 05:52:19;;;;;;;;;;;;;;;22.01;18.17;98386.25;5101238;28;1372;-78
2021/01/20 05:54:44;;;;;;;;;;;;;;;22.03;18.28;98378.13;5101114;28;1119;-78
2021/01/20 05:57:10;;;;;;;;;;;;;;;22.06;18.23;98369.53;5101346;28;861;-78
2021/01/20 05:59:35;;;;;;;;;;;;;;;21.80;18.16;98368.50;5102241;28;689;-78
2021/01/20 06:02:01;;;;;;;;;;;;;;;21.83;18.34;98373.28;5102146;28;1910;-78
2021/01/20 06:04:27;;;;;;;;;;;;;;;21.92;18.07;98369.09;5101316;28;888;-78
2021/01/20 06:06:53;;;;;;;;;;;;;;;21.88;18.49;98374.03;5101037;28;973;-79
2021/01/20 06:09:21;;;;;;;;;;;;;;;21.83;18.39;98372.50;5100645;28;974;-78
2021/01/20 06:11:46;;;;;;;;;;;;;;;21.89;18.59;98372.78;5083664;28;1013;-77
2021/01/20 06:14:12;;;;;;;;;;;;;;;22.09;18.27;98368.66;5101198;28;762;-78
2021/01/20 06:16:37;;;;;;;;;;;;;;;21.87;18.40;98372.44;5099997;28;1019;-78
2021/01/20 06:19:07;;;;;;;;;;;;;;;21.90;18.42;98371.53;5100373;28;1259;-78
2021/01/20 06:21:33;;;;;;;;;;;;;;;21.89;18.47;98382.06;5083615;28;1983;-78
2021/01/20 06:24:10;;;;;;;;;;;;;;;21.92;18.35;98380.41;5099826;28;906;-77
2021/01/20 06:26:36;;;;;;;;;;;;;;;21.95;18.50;98377.47;5100938;28;691;-78
2021/01/20 06:29:03;;;;;;;;;;;;;;;22.08;18.28;98380.44;5100482;28;1197;-78
2021/01/20 06:31:29;;;;;;;;;;;;;;;21.85;18.36;98381.34;5100487;28;915;-78
2021/01/20 06:33:54;;;;;;;;;;;;;;;21.84;18.46;98380.56;5099894;28;896;-78
2021/01/20 06:36:30;;;;;;;;;;;;;;;21.90;18.61;98389.34;5100393;28;860;-78
2021/01/20 06:38:55;;;;;;;;;;;;;;;21.89;18.23;98386.94;5082595;28;785;-78
2021/01/20 06:41:40;;;;;;;;;;;;;;;21.92;18.39;98386.09;5099934;28;1897;-77
2021/01/20 06:44:10;;;;;;;;;;;;;;;21.89;18.51;98389.78;5083287;28;661;-78
2021/01/20 06:46:35;;;;;;;;;;;;;;;21.97;18.46;98385.56;5083459;28;871;-78
2021/01/20 06:49:01;;;;;;;;;;;;;;;22.01;18.38;98400.44;5083101;28;926;-78
2021/01/20 06:51:27;;;;;;;;;;;;;;;21.82;18.50;98391.53;5083152;28;971;-78
2021/01/20 06:53:59;;;;;;;;;;;;;;;22.05;18.38;98401.94;5099756;28;875;-78
2021/01/20 06:56:30;;;;;;;;;;;;;;;22.02;18.39;98400.00;5100861;28;1029;-78
2021/01/20 06:59:14;;;;;;;;;;;;;;;21.99;18.29;98402.91;5100581;28;701;-78
2021/01/20 07:01:39;;;;;;;;;;;;;;;21.91;18.50;98407.91;5100864;28;1972;-77
2021/01/20 07:04:05;;;;;;;;;;;;;;;21.92;18.24;98403.88;5099167;28;852;-78
2021/01/20 07:06:40;;;;;;;;;;;;;;;21.38;19.10;98404.16;5100185;28;682;-78
2021/01/20 07:09:16;;;;;;;;;;;;;;;21.39;19.14;98407.78;5100443;28;705;-78
2021/01/20 07:12:12;;;;;;;;;;;;;;;21.65;18.64;98406.84;5100239;28;605;-78
2021/01/20 07:14:40;;;;;;;;;;;;;;;21.89;18.54;98409.59;5095679;28;1174;-77
2021/01/20 07:17:06;;;;;;;;;;;;;;;21.78;18.69;98419.13;5100489;28;859;-78
2021/01/20 07:19:33;;;;;;;;;;;;;;;21.87;18.61;98427.06;5101999;28;655;-78
2021/01/20 07:21:59;;;;;;;;;;;;;;;21.79;18.43;98428.41;5104494;28;1913;-80
2021/01/20 07:24:24;;;;;;;;;;;;;;;21.79;18.56;98423.56;5105817;28;649;-79
2021/01/20 07:26:50;;;;;;;;;;;;;;;22.08;18.14;98423.75;5105991;28;661;-79
2021/01/20 07:29:16;;;;;;;;;;;;;;;22.07;18.11;98432.69;5105829;28;957;-79
2021/01/20 07:31:48;;;;;;;;;;;;;;;21.92;18.61;98425.75;5105490;28;896;-79
2021/01/20 07:34:13;;;;;;;;;;;;;;;21.95;18.52;98430.53;5104623;28;971;-79
2021/01/20 07:36:39;;;;;;;;;;;;;;;22.04;18.22;98433.56;5088600;28;689;-79
2021/01/20 07:39:20;;;;;;;;;;;;;;;21.92;18.42;98429.38;5104883;28;656;-79
2021/01/20 07:41:52;;;;;;;;;;;;;;;21.89;18.43;98429.44;5105690;28;1949;-79
2021/01/20 07:44:18;;;;;;;;;;;;;;;21.91;18.62;98426.94;5105020;28;865;-79
2021/01/20 07:46:43;;;;;;;;;;;;;;;21.92;18.52;98428.56;5087576;28;876;-79
2021/01/20 07:49:10;;;;;;;;;;;;;;;21.89;18.68;98429.44;5104640;28;689;-79
2021/01/20 07:51:35;;;;;;;;;;;;;;;21.94;18.19;98424.06;5105891;28;617;-79
2021/01/20 07:54:04;;;;;;;;;;;;;;;22.01;18.12;98425.94;5104379;28;666;-79
2021/01/20 07:56:29;;;;;;;;;;;;;;;21.90;18.44;98419.69;5104889;28;1066;-79
2021/01/20 07:58:55;;;;;;;;;;;;;;;21.78;18.73;98430.47;5104894;28;838;-79
2021/01/20 08:01:30;;;;;;;;;;;;;;;21.94;18.38;98434.59;5105093;28;1978;-79
2021/01/20 08:03:57;;;;;;;;;;;;;;;21.84;18.42;98425.88;5105141;28;852;-79
2021/01/20 08:06:26;;;;;;;;;;;;;;;21.97;18.32;98433.72;5104553;28;802;-79
2021/01/20 08:08:57;;;;;;;;;;;;;;;21.94;18.61;98434.59;5103739;28;908;-78
2021/01/20 08:11:27;;;;;;;;;;;;;;;22.21;18.22;98437.28;5105184;28;653;-79
2021/01/20 08:13:53;;;;;;;;;;;;;;;21.99;18.33;98431.25;5103982;28;963;-79
2021/01/20 08:16:18;;;;;;;;;;;;;;;22.03;18.52;98444.09;5104618;28;1080;-79
2021/01/20 08:18:44;;;;;;;;;;;;;;;21.91;18.66;98441.13;5104505;28;897;-78
2021/01/20 08:21:10;;;;;;;;;;;;;;;21.75;18.71;98439.81;5104359;28;1968;-79
2021/01/20 08:23:49;;;;;;;;;;;;;;;21.94;18.46;98443.88;5104068;28;717;-79
2021/01/20 08:26:14;;;;;;;;;;;;;;;21.92;18.66;98439.91;5104240;28;614;-79
2021/01/20 08:28:59;;;;;;;;;;;;;;;22.07;18.48;98442.00;5103698;28;871;-78
2021/01/20 08:31:25;;;;;;;;;;;;;;;21.97;18.39;98445.06;5103687;28;1189;-78
2021/01/20 08:33:50;;;;;;;;;;;;;;;22.00;18.51;98444.16;5103440;28;629;-78
2021/01/20 08:36:23;;;;;;;;;;;;;;;22.10;18.28;98443.97;5104394;28;1212;-79
2021/01/20 08:38:48;;;;;;;;;;;;;;;21.91;18.53;98441.13;5103628;28;702;-79
2021/01/20 08:41:15;;;;;;;;;;;;;;;21.38;19.20;98440.16;5105488;28;1973;-79
2021/01/20 08:43:41;;;;;;;;;;;;;;;21.39;19.32;98444.56;5104192;28;959;-79
2021/01/20 08:46:25;;;;;;;;;;;;;;;21.72;18.67;98439.91;5103860;28;953;-79
2021/01/20 08:48:57;;;;;;;;;;;;;;;21.67;18.78;98426.25;5103114;28;674;-79
2021/01/20 08:51:23;;;;;;;;;;;;;;;21.80;18.69;98427.97;5104175;28;633;-79
2021/01/20 08:53:48;;;;;;;;;;;;;;;21.90;18.65;98428.19;5103083;28;665;-79
2021/01/20 08:56:23;;;;;;;;;;;;;;;21.81;18.60;98432.44;5104410;28;1218;-79
2021/01/20 08:58:51;;;;;;;;;;;;;;;21.96;18.56;98427.25;5102511;28;1063;-79
2021/01/20 09:01:17;;;;;;;;;;;;;;;22.09;18.38;98419.69;5103314;28;1985;-79
2021/01/20 09:03:53;;;;;;;;;;;;;;;22.06;18.44;98425.41;5103487;28;653;-79
2021/01/20 09:06:18;;;;;;;;;;;;;;;22.00;18.36;98421.50;5103845;28;777;-80
2021/01/20 09:08:44;;;;;;;;;;;;;;;21.80;18.57;98422.31;5102737;28;718;-79
2021/01/20 09:11:09;;;;;;;;;;;;;;;21.68;18.98;98422.19;5104840;28;729;-79
2021/01/20 09:13:35;;;;;;;;;;;;;;;21.87;18.76;98417.75;5084895;28;1010;-79
2021/01/20 09:16:00;;;;;;;;;;;;;;;22.00;18.50;98425.13;5104419;28;857;-79
2021/01/20 09:18:26;;;;;;;;;;;;;;;22.05;18.34;98413.28;5085611;28;818;-79
2021/01/20 09:20:51;;;;;;;;;;;;;;;22.00;18.37;98415.84;5103320;28;1902;-79
2021/01/20 09:23:17;;;;;;;;;;;;;;;21.83;18.72;98412.94;5103425;28;637;-79
2021/01/20 09:25:42;;;;;;;;;;;;;;;22.06;18.64;98405.56;5102895;28;754;-79
2021/01/20 09:28:08;;;;;;;;;;;;;;;22.11;18.44;98405.09;5102618;28;958;-79
2021/01/20 09:30:33;;;;;;;;;;;;;;;22.06;18.75;98402.75;5103613;28;843;-79
2021/01/20 09:32:59;;;;;;;;;;;;;;;22.01;18.62;98406.09;5102563;28;860;-79
2021/01/20 09:35:24;;;;;;;;;;;;;;;22.07;18.49;98398.66;5102372;28;926;-79
2021/01/20 09:37:50;;;;;;;;;;;;;;;22.27;18.39;98401.50;5103054;28;721;-79
2021/01/20 09:40:16;;;;;;;;;;;;;;;21.96;18.69;98396.06;5103023;28;1910;-80
2021/01/20 09:42:42;;;;;;;;;;;;;;;21.87;18.75;98389.44;5103357;28;849;-79
2021/01/20 09:45:08;;;;;;;;;;;;;;;21.83;18.89;98395.97;5085138;28;863;-79
2021/01/20 09:47:37;;;;;;;;;;;;;;;22.10;18.62;98392.97;5102812;28;997;-79
2021/01/20 09:50:04;;;;;;;;;;;;;;;21.98;18.56;98390.78;5102019;28;590;-79
2021/01/20 09:52:29;;;;;;;;;;;;;;;21.94;18.71;98394.94;5085928;28;653;-80
2021/01/20 09:54:55;;;;;;;;;;;;;;;21.91;18.83;98385.25;5098661;28;1135;-79
2021/01/20 09:57:20;;;;;;;;;;;;;;;22.09;18.66;98384.88;5082674;28;941;-79
2021/01/20 09:59:46;;;;;;;;;;;;;;;21.75;18.85;98377.50;5097775;28;905;-79
2021/01/20 10:02:12;;;;;;;;;;;;;;;21.31;19.31;98376.78;5099007;28;1910;-79
2021/01/20 10:04:37;;;;;;;;;;;;;;;21.40;19.20;98373.41;5082426;28;725;-79
2021/01/20 10:07:02;;;;;;;;;;;;;;;21.73;18.78;98379.97;5082849;28;610;-79
2021/01/20 10:09:28;;;;;;;;;;;;;;;21.62;18.99;98373.75;5098044;28;766;-79
2021/01/20 10:11:53;;;;;;;;;;;;;;;21.84;18.75;98374.88;5081346;28;928;-79
2021/01/20 10:14:19;;;;;;;;;;;;;;;21.80;18.96;98368.50;5082560;28;841;-79
2021/01/20 10:16:47;;;;;;;;;;;;;;;21.75;18.99;98363.34;5098201;28;1124;-78
2021/01/20 10:19:13;;;;;;;;;;;;;;;21.82;18.75;98370.91;5081826;28;709;-79
2021/01/20 10:21:39;;;;;;;;;;;;;;;21.96;18.65;98359.25;5098503;28;1975;-79
2021/01/20 10:24:05;;;;;;;;;;;;;;;21.81;18.95;98355.94;5097552;28;872;-79
2021/01/20 10:26:30;;;;;;;;;;;;;;;22.01;18.65;98350.22;5081392;28;1089;-79
2021/01/20 10:28:55;;;;;;;;;;;;;;;21.82;18.83;98349.03;5097278;28;942;-79
2021/01/20 10:31:21;;;;;;;;;;;;;;;21.84;18.79;98349.38;5098798;28;884;-79
2021/01/20 10:33:46;;;;;;;;;;;;;;;21.89;18.87;98341.63;5081147;28;1173;-79
2021/01/20 10:36:12;;;;;;;;;;;;;;;21.82;18.74;98340.53;5082364;28;634;-79
2021/01/20 10:38:37;;;;;;;;;;;;;;;21.88;18.86;98334.34;5097561;28;682;-79
2021/01/20 10:41:03;;;;;;;;;;;;;;;21.85;18.99;98338.84;5081329;28;1898;-79
2021/01/20 10:43:28;;;;;;;;;;;;;;;22.07;18.77;98336.31;5097226;28;942;-79
2021/01/20 10:45:54;;;;;;;;;;;;;;;22.00;18.79;98339.34;5097866;28;847;-79
2021/01/20 10:48:19;;;;;;;;;;;;;;;21.92;18.88;98330.22;5081009;28;1287;-79
2021/01/20 10:50:45;;;;;;;;;;;;;;;21.91;18.72;98328.59;5082388;28;713;-79
2021/01/20 10:53:10;;;;;;;;;;;;;;;21.85;18.63;98336.81;5081366;28;653;-79
2021/01/20 10:55:35;;;;;;;;;;;;;;;21.91;18.94;98333.47;5080032;28;973;-79
2021/01/20 10:58:01;;;;;;;;;;;;;;;21.99;18.66;98329.25;5080032;28;964;-78
2021/01/20 11:00:26;;;;;;;;;;;;;;;22.02;18.91;98331.19;5097511;28;1971;-78
2021/01/20 11:02:52;;;;;;;;;;;;;;;21.82;18.96;98326.38;5080541;28;1149;-80
2021/01/20 11:05:17;;;;;;;;;;;;;;;21.57;18.95;98328.97;5097324;28;716;-79
2021/01/20 11:07:43;;;;;;;;;;;;;;;20.96;19.77;98320.84;5080611;28;1438;-79
2021/01/20 11:10:09;;;;;;;;;;;;;;;21.63;19.37;98315.88;5096842;28;990;-79
2021/01/20 11:12:34;;;;;;;;;;;;;;;21.63;19.27;98321.53;5097238;28;844;-79
2021/01/20 11:15:00;;;;;;;;;;;;;;;21.62;19.29;98316.31;5096505;28;1003;-79
2021/01/20 11:17:26;;;;;;;;;;;;;;;21.74;18.94;98327.75;5097360;28;809;-79
2021/01/20 11:19:52;;;;;;;;;;;;;;;21.77;18.96;98318.41;5096544;28;734;-79
2021/01/20 11:22:17;;;;;;;;;;;;;;;21.70;18.93;98324.19;5081335;28;1979;-78
2021/01/20 11:24:43;;;;;;;;;;;;;;;21.78;18.91;98320.00;5096655;28;1041;-79
2021/01/20 11:27:09;;;;;;;;;;;;;;;21.85;18.80;98314.16;5096549;28;874;-79
2021/01/20 11:29:34;;;;;;;;;;;;;;;21.67;19.05;98321.47;5080671;28;847;-79
2021/01/20 11:32:00;;;;;;;;;;;;;;;21.71;19.25;98308.84;5097577;28;963;-79
2021/01/20 11:34:25;;;;;;;;;;;;;;;21.76;19.25;98310.31;5081174;28;632;-79
2021/01/20 11:36:51;;;;;;;;;;;;;;;21.84;18.81;98318.22;5097390;28;701;-78
2021/01/20 11:39:16;;;;;;;;;;;;;;;21.71;19.16;98314.50;5080394;28;920;-79
2021/01/20 11:41:41;;;;;;;;;;;;;;;21.79;18.91;98310.25;5097284;28;1964;-79
2021/01/20 11:44:07;;;;;;;;;;;;;;;21.74;19.29;98301.47;5080796;28;980;-79
2021/01/20 11:46:32;;;;;;;;;;;;;;;21.83;19.09;98308.13;5097245;28;801;-79
2021/01/20 11:49:07;;;;;;;;;;;;;;;21.93;18.85;98302.69;5080431;28;705;-78
2021/01/20 11:51:34;;;;;;;;;;;;;;;22.17;18.58;98294.84;5095893;28;741;-79
2021/01/20 11:53:59;;;;;;;;;;;;;;;21.80;18.89;98294.84;5096431;28;1008;-79
2021/01/20 11:56:25;;;;;;;;;;;;;;;21.71;18.99;98291.84;5100301;28;1004;-79
2021/01/20 11:58:50;;;;;;;;;;;;;;;21.82;19.12;98281.06;5116807;28;933;-79
2021/01/20 12:01:16;;;;;;;;;;;;;;;22.00;18.82;98299.66;5101649;28;1913;-79
2021/01/20 12:03:41;;;;;;;;;;;;;;;22.08;18.70;98299.06;5083212;28;645;-79
2021/01/20 12:06:09;;;;;;;;;;;;;;;22.03;18.76;98295.97;5084891;28;734;-79
2021/01/20 12:08:35;;;;;;;;;;;;;;;21.50;19.21;98303.59;5104250;28;1052;-79
2021/01/20 12:11:00;;;;;;;;;;;;;;;21.19;19.46;98295.34;5105326;28;904;-78
2021/01/20 12:13:26;;;;;;;;;;;;;;;21.31;19.52;98291.88;5103843;28;856;-78
2021/01/20 12:15:52;;;;;;;;;;;;;;;21.55;19.15;98277.63;5105267;28;413;-78
2021/01/20 12:18:18;;;;;;;;;;;;;;;21.62;19.54;98283.13;5103831;28;689;-79
2021/01/20 12:20:43;;;;;;;;;;;;;;;21.81;19.32;98287.97;5104034;28;1898;-78
2021/01/20 12:23:09;;;;;;;;;;;;;;;21.85;19.18;98285.81;5103831;28;888;-79
2021/01/20 12:25:34;;;;;;;;;;;;;;;21.84;18.99;98283.44;5104176;28;857;-79
2021/01/20 12:28:00;;;;;;;;;;;;;;;21.68;19.29;98281.38;5104526;28;892;-79
2021/01/20 12:30:25;;;;;;;;;;;;;;;21.73;19.15;98288.56;5103709;28;673;-79
2021/01/20 12:32:51;;;;;;;;;;;;;;;21.78;19.04;98291.66;5104220;28;701;-78
2021/01/20 12:35:16;;;;;;;;;;;;;;;21.89;18.91;98290.63;5103849;28;1103;-78
2021/01/20 12:37:42;;;;;;;;;;;;;;;21.73;19.05;98291.38;5103266;28;911;-78
2021/01/20 12:40:07;;;;;;;;;;;;;;;21.85;19.18;98291.50;5102689;28;1906;-79
2021/01/20 12:42:33;;;;;;;;;;;;;;;21.78;19.10;98308.66;5120611;28;618;-79
2021/01/20 12:44:58;;;;;;;;;;;;;;;21.82;19.14;98306.56;5103588;28;645;-78
2021/01/20 12:47:24;;;;;;;;;;;;;;;21.62;19.20;98311.44;5103841;28;586;-78
2021/01/20 12:49:49;;;;;;;;;;;;;;;21.69;19.18;98299.97;5102387;28;987;-79
2021/01/20 12:52:14;;;;;;;;;;;;;;;21.77;19.30;98311.94;5103867;28;851;-78
2021/01/20 12:54:40;;;;;;;;;;;;;;;21.61;19.46;98315.53;5103392;28;1105;-78
2021/01/20 12:57:05;;;;;;;;;;;;;;;21.85;18.99;98308.50;5104238;28;637;-79
2021/01/20 12:59:31;;;;;;;;;;;;;;;21.76;19.38;98299.81;5119436;28;899;-78
2021/01/20 13:01:56;;;;;;;;;;;;;;;21.81;19.10;98313.47;5103364;28;1959;-78
2021/01/20 13:04:22;;;;;;;;;;;;;;;21.88;19.14;98306.03;5102830;28;971;-78
2021/01/20 13:06:47;;;;;;;;;;;;;;;21.92;19.14;98307.56;5102458;28;950;-78